Abbottstown, Pennsylvania
Current Conditions -  °F | °C
As of 2:53 AM on Tuesday 21 Oct 2014 (Local Time) from KTHV Reporting Station
Overcast Overcast  
Wind Chill: 52°   Ceiling: 6000
Heat Index: 52°   Visibility: 9mi
Dew Point: 51°   Wind: 0mph
Humidity: 97%   Direction: NA
Pressure: 29.88"   Gusts: NA
Location:  39.89°N, 76.98°W
Report Text: KTHV 210653Z AUTO 00000KT 9SM BKN060 OVC070 11/11 A2988 RMK AO2 SLP121 T01110106
Loading
Personal Weather Stations






























Interactive Weather Map
Tropical Storm Tracking
New forecast layout! Learn more

10-Day Weather Forecast

Advertisements
Track Severe Weather on mobile